Aviation Digital Data Service (ADDS)

Output produced by METARs form (0631 UTC 23 February 2018)
found at http://aviationweather.gov/adds/metars/
 
KINT 230613Z 2306/2406 VRB04KT P6SM SCT015 BKN045 
     FM230800 06004KT 4SM BR OVC007 
     TEMPO 2312/2316 2SM -DZ BR OVC003 
     FM231700 19005KT P6SM OVC015 
     FM232200 19003KT P6SM SCT250